createdAt,value
2019-02-21T00:00:52.456Z,1018.11
2019-02-21T00:01:52.472Z,1018.13
2019-02-21T00:02:52.486Z,1018.11
2019-02-21T00:03:52.500Z,1018.13
2019-02-21T00:04:52.516Z,1018.13
2019-02-21T00:05:52.532Z,1018.13
2019-02-21T00:06:52.546Z,1018.09
2019-02-21T00:07:52.564Z,1018.11
2019-02-21T00:08:52.578Z,1018.11
2019-02-21T00:09:52.592Z,1018.09
2019-02-21T00:10:52.615Z,1018.07
2019-02-21T00:11:52.622Z,1018.08
2019-02-21T00:12:52.637Z,1018.05
2019-02-21T00:13:52.653Z,1018.08
2019-02-21T00:14:52.668Z,1018.07
2019-02-21T00:15:52.687Z,1018.05
2019-02-21T00:16:52.696Z,1018.11
2019-02-21T00:17:52.710Z,1018.08
2019-02-21T00:18:52.728Z,1018.07
2019-02-21T00:19:52.743Z,1018.05
2019-02-21T00:20:52.764Z,1018.07
2019-02-21T00:21:52.773Z,1018.09
2019-02-21T00:22:52.788Z,1018.08
2019-02-21T00:23:52.802Z,1018.06
2019-02-21T00:24:52.814Z,1018.10
2019-02-21T00:25:53.982Z,1018.08
2019-02-21T00:26:52.851Z,1018.12
2019-02-21T00:27:52.864Z,1018.08
2019-02-21T00:28:52.955Z,1018.08
2019-02-21T00:29:52.903Z,1018.05
2019-02-21T00:30:52.906Z,1018.06
2019-02-21T00:31:52.922Z,1018.11
2019-02-21T00:32:52.935Z,1018.09
2019-02-21T00:33:52.951Z,1018.05
2019-02-21T00:34:52.966Z,1018.07
2019-02-21T00:35:52.979Z,1018.04
2019-02-21T00:36:52.991Z,1018.02
2019-02-21T00:37:53.015Z,1018.05
2019-02-21T00:38:53.025Z,1018.06
2019-02-21T00:39:53.037Z,1018.05
2019-02-21T00:40:53.052Z,1018.06
2019-02-21T00:41:53.067Z,1018.05
2019-02-21T00:42:53.084Z,1018.04
2019-02-21T00:43:53.096Z,1018.06
2019-02-21T00:44:53.115Z,1018.12
2019-02-21T00:45:53.123Z,1018.04
2019-02-21T00:46:53.140Z,1018.05
2019-02-21T00:47:53.154Z,1018.02
2019-02-21T00:48:53.169Z,1018.07
2019-02-21T00:49:53.186Z,1018.02
2019-02-21T00:50:53.197Z,1018.01
2019-02-21T00:51:53.218Z,1018.04
2019-02-21T00:52:53.226Z,1018.00
2019-02-21T00:53:53.245Z,1018.01
2019-02-21T00:54:53.260Z,1017.99
2019-02-21T00:55:53.270Z,1017.98
2019-02-21T00:56:53.286Z,1017.97
2019-02-21T00:57:53.301Z,1017.97
2019-02-21T00:58:53.318Z,1018.00
2019-02-21T00:59:53.337Z,1017.98
2019-02-21T01:00:53.348Z,1017.98
2019-02-21T01:01:53.361Z,1017.96
2019-02-21T01:02:53.377Z,1018.00
2019-02-21T01:03:53.408Z,1017.97
2019-02-21T01:04:53.481Z,1017.99
2019-02-21T01:05:53.482Z,1017.96
2019-02-21T01:06:53.475Z,1018.00
2019-02-21T01:07:53.523Z,1018.02
2019-02-21T01:08:53.547Z,1018.00
2019-02-21T01:09:53.536Z,1018.03
2019-02-21T01:10:53.535Z,1018.08
2019-02-21T01:11:53.535Z,1018.04
2019-02-21T01:12:53.540Z,1018.10
2019-02-21T01:13:53.539Z,1018.00
2019-02-21T01:14:53.554Z,1018.04
2019-02-21T01:15:53.571Z,1018.02
2019-02-21T01:16:53.582Z,1018.01
2019-02-21T01:17:53.597Z,1018.02
2019-02-21T01:18:53.611Z,1018.05
2019-02-21T01:19:53.626Z,1018.02
2019-02-21T01:20:53.642Z,1017.97
2019-02-21T01:21:53.661Z,1018.01
2019-02-21T01:22:53.671Z,1017.97
2019-02-21T01:23:53.708Z,1017.96
2019-02-21T01:24:53.704Z,1017.95
2019-02-21T01:25:53.720Z,1017.96
2019-02-21T01:26:53.732Z,1017.97
2019-02-21T01:27:53.746Z,1017.99
2019-02-21T01:28:53.764Z,1017.96
2019-02-21T01:29:53.775Z,1017.96
2019-02-21T01:30:56.959Z,1017.96
2019-02-21T01:31:53.808Z,1017.91
2019-02-21T01:32:53.821Z,1017.95
2019-02-21T01:33:53.836Z,1017.91
2019-02-21T01:34:53.852Z,1017.88
2019-02-21T01:35:53.867Z,1017.91
2019-02-21T01:36:53.881Z,1017.90
2019-02-21T01:37:53.897Z,1017.88
2019-02-21T01:38:53.912Z,1017.85
2019-02-21T01:39:53.925Z,1017.87
2019-02-21T01:40:53.955Z,1017.84
2019-02-21T01:41:53.959Z,1017.84
2019-02-21T01:42:53.970Z,1017.80
2019-02-21T01:43:53.990Z,1017.75
2019-02-21T01:44:54.001Z,1017.78
2019-02-21T01:45:54.016Z,1017.75
2019-02-21T01:46:54.035Z,1017.71
2019-02-21T01:47:54.048Z,1017.65
2019-02-21T01:48:54.060Z,1017.69
2019-02-21T01:49:54.074Z,1017.67
2019-02-21T01:50:54.085Z,1017.68
2019-02-21T01:51:54.104Z,1017.67
2019-02-21T01:52:54.118Z,1017.66
2019-02-21T01:53:54.134Z,1017.68
2019-02-21T01:54:54.149Z,1017.70
2019-02-21T01:55:54.161Z,1017.73
2019-02-21T01:56:54.180Z,1017.76
2019-02-21T01:57:54.191Z,1017.73
2019-02-21T01:58:54.210Z,1017.67
2019-02-21T01:59:54.224Z,1017.73
2019-02-21T02:00:54.237Z,1017.74
2019-02-21T02:01:54.256Z,1017.72
2019-02-21T02:02:54.270Z,1017.71
2019-02-21T02:03:54.284Z,1017.74
2019-02-21T02:04:54.294Z,1017.74
2019-02-21T02:05:54.317Z,1017.73
2019-02-21T02:06:54.382Z,1017.71
2019-02-21T02:07:54.340Z,1017.75
2019-02-21T02:08:54.355Z,1017.75
2019-02-21T02:09:54.380Z,1017.71
2019-02-21T02:10:54.386Z,1017.77
2019-02-21T02:11:54.408Z,1017.75
2019-02-21T02:12:54.415Z,1017.70
2019-02-21T02:13:54.429Z,1017.71
2019-02-21T02:14:54.461Z,1017.77
2019-02-21T02:15:54.459Z,1017.73
2019-02-21T02:16:54.471Z,1017.75
2019-02-21T02:17:54.492Z,1017.73
2019-02-21T02:18:54.518Z,1017.69
2019-02-21T02:19:54.519Z,1017.77
2019-02-21T02:20:54.539Z,1017.75
2019-02-21T02:21:54.553Z,1017.76
2019-02-21T02:22:54.564Z,1017.75
2019-02-21T02:23:54.597Z,1017.71
2019-02-21T02:24:54.593Z,1017.74
2019-02-21T02:25:54.607Z,1017.72
2019-02-21T02:26:54.624Z,1017.72
2019-02-21T02:27:54.638Z,1017.69
2019-02-21T02:28:54.653Z,1017.67
2019-02-21T02:29:54.668Z,1017.66
2019-02-21T02:30:54.683Z,1017.69
2019-02-21T02:31:54.704Z,1017.62
2019-02-21T02:32:54.718Z,1017.62
2019-02-21T02:33:54.736Z,1017.60
2019-02-21T02:34:54.744Z,1017.65
2019-02-21T02:35:54.757Z,1017.64
2019-02-21T02:36:54.773Z,1017.65
2019-02-21T02:37:54.788Z,1017.69
2019-02-21T02:38:54.801Z,1017.64
2019-02-21T02:39:54.818Z,1017.66
2019-02-21T02:40:54.834Z,1017.64
2019-02-21T02:41:54.845Z,1017.68
2019-02-21T02:42:54.864Z,1017.65
2019-02-21T02:43:54.880Z,1017.63
2019-02-21T02:44:54.893Z,1017.65
2019-02-21T02:45:54.912Z,1017.63
2019-02-21T02:46:54.926Z,1017.64
2019-02-21T02:47:54.939Z,1017.66
2019-02-21T02:48:54.953Z,1017.62
2019-02-21T02:49:54.967Z,1017.66
2019-02-21T02:50:54.982Z,1017.64
2019-02-21T02:51:54.998Z,1017.64
2019-02-21T02:52:55.011Z,1017.63
2019-02-21T02:53:55.031Z,1017.60
2019-02-21T02:54:55.044Z,1017.64
2019-02-21T02:55:55.074Z,1017.60
2019-02-21T02:56:55.073Z,1017.60
2019-02-21T02:57:55.095Z,1017.61
2019-02-21T02:58:55.128Z,1017.63
2019-02-21T02:59:55.158Z,1017.63
2019-02-21T03:00:55.133Z,1017.61
2019-02-21T03:01:55.175Z,1017.59
2019-02-21T03:02:55.163Z,1017.58
2019-02-21T03:03:55.177Z,1017.58
2019-02-21T03:04:55.200Z,1017.61
2019-02-21T03:05:55.212Z,1017.63
2019-02-21T03:06:55.223Z,1017.61
2019-02-21T03:07:55.251Z,1017.61
2019-02-21T03:08:55.327Z,1017.63
2019-02-21T03:09:55.325Z,1017.65
2019-02-21T03:10:55.323Z,1017.67
2019-02-21T03:11:55.327Z,1017.65
2019-02-21T03:12:55.399Z,1017.68
2019-02-21T03:13:55.428Z,1017.64
2019-02-21T03:14:55.391Z,1017.69
2019-02-21T03:15:55.384Z,1017.66
2019-02-21T03:16:55.398Z,1017.73
2019-02-21T03:17:55.390Z,1017.76
2019-02-21T03:18:55.405Z,1017.72
2019-02-21T03:19:55.417Z,1017.75
2019-02-21T03:20:55.433Z,1017.75
2019-02-21T03:21:55.452Z,1017.72
2019-02-21T03:22:55.466Z,1017.72
2019-02-21T03:23:55.478Z,1017.79
2019-02-21T03:24:55.492Z,1017.76
2019-02-21T03:25:55.507Z,1017.74
2019-02-21T03:26:55.522Z,1017.73
2019-02-21T03:27:55.537Z,1017.79
2019-02-21T03:28:55.558Z,1017.74
2019-02-21T03:29:55.573Z,1017.77
2019-02-21T03:30:55.585Z,1017.76
2019-02-21T03:31:56.312Z,1017.73
2019-02-21T03:32:55.616Z,1017.73
2019-02-21T03:33:55.642Z,1017.78
2019-02-21T03:34:55.652Z,1017.78
2019-02-21T03:35:55.793Z,1017.77
2019-02-21T03:36:55.693Z,1017.77
2019-02-21T03:37:55.690Z,1017.76
2019-02-21T03:38:55.723Z,1017.76
2019-02-21T03:39:55.721Z,1017.80
2019-02-21T03:40:55.739Z,1017.81
2019-02-21T03:41:55.750Z,1017.79
2019-02-21T03:42:55.769Z,1017.78
2019-02-21T03:43:55.781Z,1017.87
2019-02-21T03:44:55.797Z,1017.84
2019-02-21T03:45:55.905Z,1017.85
2019-02-21T03:46:55.828Z,1017.86
2019-02-21T03:47:55.840Z,1017.91
2019-02-21T03:48:55.855Z,1017.85
2019-02-21T03:49:55.872Z,1017.88
2019-02-21T03:50:55.908Z,1017.86
2019-02-21T03:51:55.908Z,1017.85
2019-02-21T03:52:55.919Z,1017.82
2019-02-21T03:53:55.936Z,1017.86
2019-02-21T03:54:55.949Z,1017.85
2019-02-21T03:55:55.968Z,1017.90
2019-02-21T03:56:55.977Z,1017.85
2019-02-21T03:57:56.007Z,1017.90
2019-02-21T03:58:56.005Z,1017.85
2019-02-21T03:59:56.034Z,1017.86
2019-02-21T04:00:56.038Z,1017.80
2019-02-21T04:02:04.849Z,1017.82
2019-02-21T04:02:56.072Z,1017.83
2019-02-21T04:03:56.164Z,1017.86
2019-02-21T04:04:56.100Z,1017.79
2019-02-21T04:05:56.116Z,1017.84
2019-02-21T04:06:56.128Z,1017.81
2019-02-21T04:07:56.148Z,1017.78
2019-02-21T04:08:56.165Z,1017.78
2019-02-21T04:09:56.177Z,1017.75
2019-02-21T04:10:56.192Z,1017.81
2019-02-21T04:11:56.206Z,1017.80
2019-02-21T04:12:56.221Z,1017.83
2019-02-21T04:13:56.238Z,1017.84
2019-02-21T04:14:56.257Z,1017.83
2019-02-21T04:15:56.267Z,1017.84
2019-02-21T04:16:56.282Z,1017.83
2019-02-21T04:17:56.297Z,1017.83
2019-02-21T04:18:56.315Z,1017.85
2019-02-21T04:19:56.329Z,1017.83
2019-02-21T04:20:56.345Z,1017.85
2019-02-21T04:21:56.362Z,1017.80
2019-02-21T04:22:56.386Z,1017.82
2019-02-21T04:23:56.391Z,1017.80
2019-02-21T04:24:56.402Z,1017.80
2019-02-21T04:25:56.418Z,1017.81
2019-02-21T04:26:56.498Z,1017.78
2019-02-21T04:27:56.452Z,1017.78
2019-02-21T04:28:56.472Z,1017.83
2019-02-21T04:29:56.479Z,1017.80
2019-02-21T04:30:56.497Z,1017.82
2019-02-21T04:31:56.511Z,1017.81
2019-02-21T04:32:56.526Z,1017.80
2019-02-21T04:33:56.550Z,1017.83
2019-02-21T04:34:56.558Z,1017.81
2019-02-21T04:35:56.571Z,1017.81
2019-02-21T04:36:56.588Z,1017.82
2019-02-21T04:37:56.600Z,1017.85
2019-02-21T04:38:56.619Z,1017.82
2019-02-21T04:39:56.637Z,1017.87
2019-02-21T04:40:56.645Z,1017.86
2019-02-21T04:41:56.661Z,1017.83
2019-02-21T04:42:56.683Z,1017.84
2019-02-21T04:43:56.690Z,1017.82
2019-02-21T04:44:56.711Z,1017.83
2019-02-21T04:45:56.718Z,1017.77
2019-02-21T04:46:56.734Z,1017.84
2019-02-21T04:47:56.750Z,1017.80
2019-02-21T04:48:56.762Z,1017.78
2019-02-21T04:49:56.779Z,1017.78
2019-02-21T04:50:56.792Z,1017.78
2019-02-21T04:51:56.806Z,1017.75
2019-02-21T04:52:56.825Z,1017.76
2019-02-21T04:53:56.843Z,1017.75
2019-02-21T04:54:56.855Z,1017.77
2019-02-21T04:55:56.872Z,1017.70
2019-02-21T04:56:56.889Z,1017.73
2019-02-21T04:57:56.899Z,1017.78
2019-02-21T04:58:56.909Z,1017.73
2019-02-21T04:59:56.927Z,1017.76
2019-02-21T05:00:56.948Z,1017.75
2019-02-21T05:01:56.957Z,1017.72
2019-02-21T05:02:56.973Z,1017.72
2019-02-21T05:03:56.987Z,1017.72
2019-02-21T05:04:57.009Z,1017.73
2019-02-21T05:05:57.023Z,1017.68
2019-02-21T05:06:57.036Z,1017.70
2019-02-21T05:07:57.047Z,1017.72
2019-02-21T05:08:57.059Z,1017.67
2019-02-21T05:09:58.299Z,1017.68
2019-02-21T05:10:57.174Z,1017.67
2019-02-21T05:11:57.177Z,1017.67
2019-02-21T05:12:57.186Z,1017.66
2019-02-21T05:13:57.183Z,1017.70
2019-02-21T05:14:57.180Z,1017.61
2019-02-21T05:15:57.237Z,1017.63
2019-02-21T05:16:57.238Z,1017.61
2019-02-21T05:17:57.250Z,1017.67
2019-02-21T05:18:57.237Z,1017.62
2019-02-21T05:19:57.238Z,1017.60
2019-02-21T05:20:57.244Z,1017.62
2019-02-21T05:21:57.250Z,1017.61
2019-02-21T05:22:57.264Z,1017.66
2019-02-21T05:23:57.287Z,1017.68
2019-02-21T05:24:57.302Z,1017.65
2019-02-21T05:25:57.312Z,1017.63
2019-02-21T05:26:57.325Z,1017.64
2019-02-21T05:27:57.340Z,1017.65
2019-02-21T05:28:57.356Z,1017.69
2019-02-21T05:29:57.369Z,1017.65
2019-02-21T05:30:57.382Z,1017.70
2019-02-21T05:31:57.400Z,1017.68
2019-02-21T05:32:57.412Z,1017.66
2019-02-21T05:33:57.429Z,1017.69
2019-02-21T05:34:57.445Z,1017.66
2019-02-21T05:35:57.461Z,1017.64
2019-02-21T05:36:57.485Z,1017.61
2019-02-21T05:37:57.491Z,1017.60
2019-02-21T05:38:57.504Z,1017.57
2019-02-21T05:39:57.515Z,1017.55
2019-02-21T05:40:57.528Z,1017.53
2019-02-21T05:41:57.545Z,1017.57
2019-02-21T05:42:57.559Z,1017.57
2019-02-21T05:43:57.574Z,1017.54
2019-02-21T05:44:59.510Z,1017.59
2019-02-21T05:45:57.603Z,1017.58
2019-02-21T05:46:57.618Z,1017.56
2019-02-21T05:47:57.632Z,1017.55
2019-02-21T05:48:57.646Z,1017.53
2019-02-21T05:49:57.662Z,1017.54
2019-02-21T05:50:57.678Z,1017.53
2019-02-21T05:51:57.688Z,1017.52
2019-02-21T05:52:57.710Z,1017.54
2019-02-21T05:53:57.723Z,1017.50
2019-02-21T05:54:57.735Z,1017.48
2019-02-21T05:55:57.751Z,1017.48
2019-02-21T05:56:57.868Z,1017.48
2019-02-21T05:57:57.782Z,1017.51
2019-02-21T05:58:57.795Z,1017.49
2019-02-21T05:59:57.807Z,1017.53
2019-02-21T06:00:57.826Z,1017.52
2019-02-21T06:01:57.841Z,1017.55
2019-02-21T06:02:57.850Z,1017.52
2019-02-21T06:03:57.870Z,1017.54
2019-02-21T06:04:57.883Z,1017.54
2019-02-21T06:05:57.904Z,1017.50
2019-02-21T06:06:57.916Z,1017.50
2019-02-21T06:07:57.928Z,1017.52
2019-02-21T06:08:57.940Z,1017.50
2019-02-21T06:09:57.955Z,1017.51
2019-02-21T06:10:57.982Z,1017.53
2019-02-21T06:11:57.986Z,1017.49
2019-02-21T06:12:59.987Z,1017.45
2019-02-21T06:13:58.016Z,1017.47
2019-02-21T06:14:58.028Z,1017.45
2019-02-21T06:15:58.045Z,1017.42
2019-02-21T06:16:58.056Z,1017.44
2019-02-21T06:17:58.072Z,1017.48
2019-02-21T06:18:58.088Z,1017.47
2019-02-21T06:19:58.106Z,1017.51
2019-02-21T06:20:58.119Z,1017.54
2019-02-21T06:22:09.712Z,1017.54
2019-02-21T06:22:58.147Z,1017.53
2019-02-21T06:23:58.165Z,1017.54
2019-02-21T06:24:58.177Z,1017.54
2019-02-21T06:25:59.248Z,1017.49
2019-02-21T06:27:00.748Z,1017.49
2019-02-21T06:27:58.643Z,1017.50
2019-02-21T06:28:58.236Z,1017.55
2019-02-21T06:29:58.253Z,1017.54
2019-02-21T06:30:58.262Z,1017.53
2019-02-21T06:31:58.280Z,1017.57
2019-02-21T06:33:05.192Z,1017.59
2019-02-21T06:33:58.311Z,1017.56
2019-02-21T06:34:58.326Z,1017.58
2019-02-21T06:35:58.336Z,1017.57
2019-02-21T06:36:58.351Z,1017.57
2019-02-21T06:37:58.368Z,1017.53
2019-02-21T06:38:58.381Z,1017.53
2019-02-21T06:39:58.397Z,1017.52
2019-02-21T06:40:58.412Z,1017.52
2019-02-21T06:41:59.965Z,1017.51
2019-02-21T06:42:58.443Z,1017.51
2019-02-21T06:43:58.465Z,1017.52
2019-02-21T06:44:58.474Z,1017.57
2019-02-21T06:45:58.489Z,1017.52
2019-02-21T06:46:58.504Z,1017.56
2019-02-21T06:47:58.517Z,1017.54
2019-02-21T06:48:58.530Z,1017.55
2019-02-21T06:49:58.823Z,1017.58
2019-02-21T06:50:58.562Z,1017.53
2019-02-21T06:51:58.577Z,1017.54
2019-02-21T06:52:58.590Z,1017.55
2019-02-21T06:53:58.608Z,1017.55
2019-02-21T06:54:58.623Z,1017.55
2019-02-21T06:55:58.638Z,1017.57
2019-02-21T06:56:58.656Z,1017.56
2019-02-21T06:57:58.667Z,1017.55
2019-02-21T06:58:58.683Z,1017.57
2019-02-21T06:59:58.698Z,1017.57
2019-02-21T07:00:58.710Z,1017.58
2019-02-21T07:01:58.725Z,1017.58
2019-02-21T07:02:58.742Z,1017.57
2019-02-21T07:03:58.759Z,1017.55
2019-02-21T07:04:58.773Z,1017.52
2019-02-21T07:05:58.804Z,1017.51
2019-02-21T07:06:58.804Z,1017.48
2019-02-21T07:07:58.817Z,1017.46
2019-02-21T07:08:59.879Z,1017.50
2019-02-21T07:09:58.847Z,1017.54
2019-02-21T07:11:05.841Z,1017.54
2019-02-21T07:11:58.879Z,1017.53
2019-02-21T07:12:58.893Z,1017.56
2019-02-21T07:13:58.911Z,1017.57
2019-02-21T07:14:58.924Z,1017.57
2019-02-21T07:15:59.034Z,1017.59
2019-02-21T07:16:59.021Z,1017.64
2019-02-21T07:17:59.034Z,1017.65
2019-02-21T07:18:59.024Z,1017.69
2019-02-21T07:19:59.059Z,1017.68
2019-02-21T07:20:59.076Z,1017.67
2019-02-21T07:21:59.092Z,1017.67
2019-02-21T07:22:59.071Z,1017.65
2019-02-21T07:23:59.096Z,1017.72
2019-02-21T07:24:59.083Z,1017.71
2019-02-21T07:25:59.100Z,1017.72
2019-02-21T07:26:59.114Z,1017.69
2019-02-21T07:27:59.139Z,1017.67
2019-02-21T07:28:59.149Z,1017.70
2019-02-21T07:29:59.162Z,1017.72
2019-02-21T07:30:59.178Z,1017.72
2019-02-21T07:31:59.191Z,1017.72
2019-02-21T07:32:59.206Z,1017.72
2019-02-21T07:34:01.589Z,1017.76
2019-02-21T07:34:59.242Z,1017.78
2019-02-21T07:35:59.258Z,1017.81
2019-02-21T07:36:59.277Z,1017.84
2019-02-21T07:37:59.287Z,1017.85
2019-02-21T07:39:13.687Z,1017.87
2019-02-21T07:39:59.319Z,1017.86
2019-02-21T07:40:59.441Z,1017.87
2019-02-21T07:41:59.348Z,1017.90
2019-02-21T07:42:59.407Z,1017.90
2019-02-21T07:43:59.381Z,1017.95
2019-02-21T07:44:59.794Z,1017.92
2019-02-21T07:45:59.411Z,1017.89
2019-02-21T07:46:59.429Z,1017.89
2019-02-21T07:47:59.449Z,1017.90
2019-02-21T07:48:59.465Z,1017.95
2019-02-21T07:49:59.479Z,1017.96
2019-02-21T07:50:59.495Z,1017.92
2019-02-21T07:51:59.509Z,1017.93
2019-02-21T07:53:02.358Z,1018.03
2019-02-21T07:53:59.541Z,1018.06
2019-02-21T07:55:02.136Z,1018.07
2019-02-21T07:55:59.581Z,1018.11
2019-02-21T07:57:01.772Z,1018.06
2019-02-21T07:57:59.606Z,1018.09
2019-02-21T07:58:59.625Z,1018.06
2019-02-21T07:59:59.642Z,1018.06
2019-02-21T08:00:59.656Z,1018.08
2019-02-21T08:01:59.676Z,1018.05
2019-02-21T08:02:59.690Z,1018.04
2019-02-21T08:03:59.701Z,1018.08
2019-02-21T08:05:02.010Z,1018.10
2019-02-21T08:05:59.735Z,1018.06
2019-02-21T08:06:59.749Z,1018.12
2019-02-21T08:07:59.767Z,1018.10
2019-02-21T08:08:59.785Z,1018.15
2019-02-21T08:09:59.807Z,1018.14
2019-02-21T08:10:59.818Z,1018.12
2019-02-21T08:11:59.832Z,1018.17
2019-02-21T08:12:59.845Z,1018.16
2019-02-21T08:13:59.862Z,1018.17
2019-02-21T08:14:59.883Z,1018.19
2019-02-21T08:15:59.899Z,1018.19
2019-02-21T08:16:59.913Z,1018.21
2019-02-21T08:17:59.927Z,1018.28
2019-02-21T08:18:59.944Z,1018.23
2019-02-21T08:20:07.694Z,1018.24
2019-02-21T08:20:59.975Z,1018.25
2019-02-21T08:22:00.322Z,1018.29
2019-02-21T08:23:02.738Z,1018.31
2019-02-21T08:24:00.026Z,1018.25
2019-02-21T08:25:00.041Z,1018.25
2019-02-21T08:26:00.058Z,1018.26
2019-02-21T08:27:00.072Z,1018.26
2019-02-21T08:28:00.087Z,1018.28
2019-02-21T08:29:00.101Z,1018.28
2019-02-21T08:30:00.517Z,1018.26
2019-02-21T08:31:00.133Z,1018.29
2019-02-21T08:32:00.149Z,1018.24
2019-02-21T08:33:00.166Z,1018.27
2019-02-21T08:34:00.178Z,1018.30
2019-02-21T08:35:00.207Z,1018.25
2019-02-21T08:36:00.214Z,1018.27
2019-02-21T08:37:00.232Z,1018.24
2019-02-21T08:38:00.244Z,1018.25
2019-02-21T08:39:00.261Z,1018.23
2019-02-21T08:40:00.273Z,1018.18
2019-02-21T08:41:00.289Z,1018.22
2019-02-21T08:42:00.339Z,1018.20
2019-02-21T08:43:00.321Z,1018.19
2019-02-21T08:44:00.337Z,1018.21
2019-02-21T08:45:00.375Z,1018.20
2019-02-21T08:46:00.371Z,1018.20
2019-02-21T08:47:00.384Z,1018.22
2019-02-21T08:48:00.399Z,1018.21
2019-02-21T08:49:00.414Z,1018.25
2019-02-21T08:50:00.432Z,1018.23
2019-02-21T08:51:00.453Z,1018.29
2019-02-21T08:52:00.459Z,1018.24
2019-02-21T08:53:01.094Z,1018.28
2019-02-21T08:54:00.490Z,1018.32
2019-02-21T08:55:00.749Z,1018.32
2019-02-21T08:56:00.525Z,1018.32
2019-02-21T08:57:00.538Z,1018.31
2019-02-21T08:58:00.556Z,1018.28
2019-02-21T08:59:00.573Z,1018.28
2019-02-21T09:00:00.586Z,1018.25
2019-02-21T09:01:00.604Z,1018.32
2019-02-21T09:02:00.615Z,1018.32
2019-02-21T09:03:00.641Z,1018.26
2019-02-21T09:04:10.093Z,1018.29
2019-02-21T09:05:00.671Z,1018.30
2019-02-21T09:06:00.680Z,1018.29
2019-02-21T09:07:00.700Z,1018.28
2019-02-21T09:08:00.714Z,1018.30
2019-02-21T09:09:00.732Z,1018.27
2019-02-21T09:10:00.751Z,1018.23
2019-02-21T09:11:00.761Z,1018.21
2019-02-21T09:12:00.778Z,1018.24
2019-02-21T09:13:00.874Z,1018.24
2019-02-21T09:14:00.860Z,1018.24
2019-02-21T09:15:00.877Z,1018.23
2019-02-21T09:16:00.885Z,1018.18
2019-02-21T09:17:00.885Z,1018.17
2019-02-21T09:18:00.951Z,1018.19
2019-02-21T09:19:00.969Z,1018.19
2019-02-21T09:20:00.940Z,1018.23
2019-02-21T09:21:00.958Z,1018.21
2019-02-21T09:22:00.940Z,1018.15
2019-02-21T09:23:00.959Z,1018.22
2019-02-21T09:24:00.969Z,1018.18
2019-02-21T09:25:02.842Z,1018.20
2019-02-21T09:26:01.004Z,1018.15
2019-02-21T09:27:01.021Z,1018.19
2019-02-21T09:28:01.037Z,1018.19
2019-02-21T09:29:01.052Z,1018.25
2019-02-21T09:30:01.069Z,1018.21
2019-02-21T09:31:01.085Z,1018.21
2019-02-21T09:32:01.104Z,1018.28
2019-02-21T09:33:01.117Z,1018.25
2019-02-21T09:34:01.137Z,1018.23
2019-02-21T09:35:01.146Z,1018.25
2019-02-21T09:36:01.163Z,1018.22
2019-02-21T09:37:01.181Z,1018.24
2019-02-21T09:38:01.195Z,1018.23
2019-02-21T09:39:01.212Z,1018.16
2019-02-21T09:40:01.229Z,1018.20
2019-02-21T09:41:01.243Z,1018.21
2019-02-21T09:42:01.261Z,1018.24
2019-02-21T09:43:01.280Z,1018.15
2019-02-21T09:44:01.289Z,1018.18
2019-02-21T09:45:01.308Z,1018.14
2019-02-21T09:46:01.322Z,1018.12
2019-02-21T09:47:01.370Z,1018.11
2019-02-21T09:48:01.359Z,1018.11
2019-02-21T09:49:02.937Z,1018.08
2019-02-21T09:50:01.390Z,1018.09
2019-02-21T09:51:01.407Z,1018.11
2019-02-21T09:52:01.424Z,1018.07
2019-02-21T09:53:01.438Z,1018.11
2019-02-21T09:54:01.455Z,1018.06
2019-02-21T09:55:01.478Z,1018.02
2019-02-21T09:56:01.492Z,1017.99
2019-02-21T09:57:12.395Z,1018.01
2019-02-21T09:58:01.521Z,1018.00
2019-02-21T09:59:01.538Z,1017.99
2019-02-21T10:00:01.557Z,1017.99
2019-02-21T10:01:01.575Z,1017.94
2019-02-21T10:02:01.599Z,1017.93
2019-02-21T10:03:01.609Z,1017.95
2019-02-21T10:04:01.627Z,1017.99
2019-02-21T10:05:04.995Z,1018.03
2019-02-21T10:06:01.656Z,1018.02
2019-02-21T10:07:01.674Z,1018.10
2019-02-21T10:08:01.692Z,1018.12
2019-02-21T10:09:01.711Z,1018.10
2019-02-21T10:10:01.729Z,1018.14
2019-02-21T10:11:01.742Z,1018.09
2019-02-21T10:12:01.763Z,1018.16
2019-02-21T10:13:01.778Z,1018.14
2019-02-21T10:14:01.803Z,1018.10
2019-02-21T10:15:01.813Z,1018.11
2019-02-21T10:16:04.619Z,1018.13
2019-02-21T10:17:01.845Z,1018.03
2019-02-21T10:18:01.863Z,1017.95
2019-02-21T10:19:01.882Z,1017.95
2019-02-21T10:20:04.130Z,1017.91
2019-02-21T10:21:01.919Z,1017.90
2019-02-21T10:22:04.355Z,1017.87
2019-02-21T10:23:01.954Z,1017.89
2019-02-21T10:24:01.968Z,1017.87
2019-02-21T10:25:02.002Z,1017.85
2019-02-21T10:26:02.002Z,1017.81
2019-02-21T10:27:02.023Z,1017.81
2019-02-21T10:28:02.044Z,1017.79
2019-02-21T10:29:02.058Z,1017.76
2019-02-21T10:30:02.078Z,1017.74
2019-02-21T10:31:02.096Z,1017.74
2019-02-21T10:32:02.113Z,1017.72
2019-02-21T10:33:02.139Z,1017.79
2019-02-21T10:34:02.161Z,1017.75
2019-02-21T10:35:02.167Z,1017.72
2019-02-21T10:36:02.187Z,1017.71
2019-02-21T10:37:02.202Z,1017.72
2019-02-21T10:38:02.229Z,1017.76
2019-02-21T10:39:02.238Z,1017.73
2019-02-21T10:40:02.260Z,1017.74
2019-02-21T10:41:02.278Z,1017.68
2019-02-21T10:42:02.302Z,1017.67
2019-02-21T10:43:02.312Z,1017.68
2019-02-21T10:44:02.328Z,1017.66
2019-02-21T10:45:03.491Z,1017.71
2019-02-21T10:46:02.365Z,1017.71
2019-02-21T10:47:02.385Z,1017.69
2019-02-21T10:48:02.401Z,1017.66
2019-02-21T10:49:02.416Z,1017.58
2019-02-21T10:50:02.436Z,1017.57
2019-02-21T10:51:02.453Z,1017.57
2019-02-21T10:52:02.468Z,1017.58
2019-02-21T10:53:02.485Z,1017.52
2019-02-21T10:54:02.505Z,1017.47
2019-02-21T10:55:02.522Z,1017.46
2019-02-21T10:56:02.540Z,1017.48
2019-02-21T10:57:02.560Z,1017.49
2019-02-21T10:58:02.576Z,1017.48
2019-02-21T10:59:02.590Z,1017.49
2019-02-21T11:00:02.629Z,1017.44
2019-02-21T11:01:02.633Z,1017.41
2019-02-21T11:02:02.650Z,1017.38
2019-02-21T11:03:02.750Z,1017.41
2019-02-21T11:04:02.746Z,1017.42
2019-02-21T11:05:02.745Z,1017.39
2019-02-21T11:06:02.742Z,1017.36
2019-02-21T11:07:02.802Z,1017.37
2019-02-21T11:08:02.809Z,1017.35
2019-02-21T11:09:02.796Z,1017.32
2019-02-21T11:10:02.816Z,1017.36
2019-02-21T11:11:02.809Z,1017.26
2019-02-21T11:12:02.825Z,1017.25
2019-02-21T11:13:02.842Z,1017.24
2019-02-21T11:14:02.858Z,1017.20
2019-02-21T11:15:02.877Z,1017.19
2019-02-21T11:16:02.895Z,1017.17
2019-02-21T11:17:02.910Z,1017.16
2019-02-21T11:18:02.930Z,1017.16
2019-02-21T11:19:02.950Z,1017.15
2019-02-21T11:20:02.968Z,1017.15
2019-02-21T11:21:02.990Z,1017.09
2019-02-21T11:22:03.004Z,1017.09
2019-02-21T11:23:03.020Z,1017.15
2019-02-21T11:24:03.035Z,1017.10
2019-02-21T11:25:03.052Z,1017.15
2019-02-21T11:26:03.069Z,1017.09
2019-02-21T11:27:03.087Z,1017.13
2019-02-21T11:28:03.107Z,1017.08
2019-02-21T11:29:03.125Z,1017.06
2019-02-21T11:30:03.142Z,1017.06
2019-02-21T11:31:03.162Z,1017.05
2019-02-21T11:32:03.177Z,1017.18
2019-02-21T11:33:03.194Z,1017.16
2019-02-21T11:34:03.214Z,1017.19
2019-02-21T11:35:06.203Z,1017.09
2019-02-21T11:36:03.251Z,1017.10
2019-02-21T11:37:03.270Z,1017.13
2019-02-21T11:38:03.286Z,1017.05
2019-02-21T11:39:03.302Z,1016.99
2019-02-21T11:40:05.496Z,1017.03
2019-02-21T11:41:03.343Z,1016.99
2019-02-21T11:42:03.360Z,1016.97
2019-02-21T11:43:03.375Z,1016.97
2019-02-21T11:44:03.393Z,1016.98
2019-02-21T11:45:03.416Z,1017.02
2019-02-21T11:46:03.433Z,1016.93
2019-02-21T11:47:03.448Z,1016.94
2019-02-21T11:48:03.470Z,1016.93
2019-02-21T11:49:03.486Z,1016.95
2019-02-21T11:50:03.507Z,1017.01
2019-02-21T11:51:03.532Z,1016.95
2019-02-21T11:52:10.223Z,1016.86
2019-02-21T11:53:03.562Z,1016.77
2019-02-21T11:54:03.577Z,1016.81
2019-02-21T11:55:03.597Z,1016.79
2019-02-21T11:56:03.621Z,1016.77
2019-02-21T11:57:03.635Z,1016.72
2019-02-21T11:58:03.657Z,1016.74
2019-02-21T11:59:03.673Z,1016.67
2019-02-21T12:00:03.693Z,1016.64
2019-02-21T12:01:03.712Z,1016.69
2019-02-21T12:02:03.732Z,1016.73
2019-02-21T12:03:03.749Z,1016.74
2019-02-21T12:04:03.766Z,1016.77
2019-02-21T12:05:03.787Z,1016.79
2019-02-21T12:06:03.803Z,1016.82